• Join FlightAware (Why Join?)
  • Login
  • US Flag 
09:03PM EDT


 

Airport Tracker/Info


-or-


 

Live Flight TrackerFlight Track Log ✈ TAM3545 ✈ 23-Jan-2014 ✈ SBBE / BEL - SBGR / GRU

Flight Track Log - Related Links

Times and Time Zones

All times are in EST time to prevent confusion due to time zone crossing. See the TAM3545 flight status page for this flight to view local times or setup timezone preferences in your user account.

Time Position Orientation Groundspeed Altitude Reporting Facility
EST Latitude Longitude Course Direction KTS MPH feet Rate Location/Type
12:45AM -1.5459 -48.4492 175° South  Level Estimated
12:46AM -1.6677 -48.4388 175° South  Level Estimated
12:47AM -1.7896 -48.4285 175° South  Level Estimated
12:48AM -1.9114 -48.4181 175° South  Level Estimated
12:49AM -2.0333 -48.4077 175° South  Level Estimated
12:50AM -2.1551 -48.3974 175° South  Level Estimated
12:51AM -2.2770 -48.3870 175° South  Level Estimated
12:52AM -2.3988 -48.3766 175° South  Level Estimated
12:53AM -2.5207 -48.3662 175° South  Level Estimated
12:54AM -2.6425 -48.3559 175° South  Level Estimated
12:55AM -2.7644 -48.3455 175° South  Level Estimated
12:56AM -2.8862 -48.3351 175° South  Level Estimated
12:57AM -3.0081 -48.3247 175° South  Level Estimated
12:58AM -3.1299 -48.3143 175° South  Level Estimated
12:59AM -3.2518 -48.3039 175° South  Level Estimated
01:00AM -3.3736 -48.2935 175° South  Level Estimated
01:01AM -3.4891 -48.2837 175° South  Level Estimated
01:02AM -3.6046 -48.2738 175° South  Level Estimated
01:03AM -3.7200 -48.2640 175° South  Level Estimated
01:04AM -3.8355 -48.2541 175° South  Level Estimated
01:05AM -3.9510 -48.2443 175° South  Level Estimated
01:06AM -4.0665 -48.2344 175° South  Level Estimated
01:07AM -4.1819 -48.2245 175° South  Level Estimated
01:08AM -4.2974 -48.2147 175° South  Level Estimated
01:09AM -4.4129 -48.2048 175° South  Level Estimated
01:10AM -4.5283 -48.1949 175° South  Level Estimated
01:11AM -4.6438 -48.1851 175° South  Level Estimated
01:12AM -4.7593 -48.1752 175° South  Level Estimated
01:13AM -4.8747 -48.1653 175° South  Level Estimated
01:14AM -4.9902 -48.1554 175° South  Level Estimated
01:15AM -5.1057 -48.1455 175° South  Level Estimated
01:16AM -5.2211 -48.1356 175° South  Level Estimated
01:17AM -5.3366 -48.1257 175° South  Level Estimated
01:18AM -5.4521 -48.1158 175° South  Level Estimated
01:19AM -5.5676 -48.1059 175° South  Level Estimated
01:20AM -5.6830 -48.0960 175° South  Level Estimated
01:21AM -5.7985 -48.0861 175° South  Level Estimated
01:22AM -5.9140 -48.0762 175° South  Level Estimated
01:23AM -6.0294 -48.0662 175° South  Level Estimated
01:24AM -6.1449 -48.0563 175° South  Level Estimated
01:25AM -6.2604 -48.0464 175° South  Level Estimated
01:26AM -6.3759 -48.0364 175° South  Level Estimated
01:27AM -6.4913 -48.0265 175° South  Level Estimated
01:28AM -6.6068 -48.0166 175° South  Level Estimated
01:29AM -6.7223 -48.0066 175° South  Level Estimated
01:30AM -6.8377 -47.9967 175° South  Level Estimated
01:31AM -6.9532 -47.9867 175° South  Level Estimated
01:32AM -7.0687 -47.9767 175° South  Level Estimated
01:33AM -7.1841 -47.9668 175° South  Level Estimated
01:34AM -7.2996 -47.9568 175° South  Level Estimated
01:35AM -7.4151 -47.9468 175° South  Level Estimated
01:36AM -7.5305 -47.9369 175° South  Level Estimated
01:37AM -7.6460 -47.9269 175° South  Level Estimated
01:38AM -7.7615 -47.9169 175° South  Level Estimated
01:39AM -7.8769 -47.9069 175° South  Level Estimated
01:40AM -7.9924 -47.8969 175° South  Level Estimated
01:41AM -8.1078 -47.8868 175° South  Level Estimated
01:42AM -8.2233 -47.8768 175° South  Level Estimated
01:43AM -8.3388 -47.8668 175° South  Level Estimated
01:44AM -8.4542 -47.8568 175° South  Level Estimated
01:45AM -8.5697 -47.8467 175° South  Level Estimated
01:46AM -8.6851 -47.8367 175° South  Level Estimated
01:47AM -8.8006 -47.8267 175° South  Level Estimated
01:48AM -8.9161 -47.8166 175° South  Level Estimated
01:49AM -9.0315 -47.8065 175° South  Level Estimated
01:50AM -9.1470 -47.7965 175° South  Level Estimated
01:51AM -9.2624 -47.7864 175° South  Level Estimated
01:52AM -9.3779 -47.7763 175° South  Level Estimated
01:53AM -9.4934 -47.7662 175° South  Level Estimated
01:54AM -9.6088 -47.7561 175° South  Level Estimated
01:55AM -9.7243 -47.7461 175° South  Level Estimated
01:56AM -9.8397 -47.7359 175° South  Level Estimated
01:57AM -9.9552 -47.7258 175° South  Level Estimated
01:58AM -10.0707 -47.7157 175° South  Level Estimated
01:59AM -10.1861 -47.7056 175° South  Level Estimated
02:00AM -10.3016 -47.6954 175° South  Level Estimated
02:01AM -10.4170 -47.6853 175° South  Level Estimated
02:02AM -10.5325 -47.6752 175° South  Level Estimated
02:03AM -10.6480 -47.6650 175° South  Level Estimated
02:04AM -10.7634 -47.6548 175° South  Level Estimated
02:05AM -10.8789 -47.6446 175° South  Level Estimated
02:06AM -10.9943 -47.6345 175° South  Level Estimated
02:07AM -11.1098 -47.6243 175° South  Level Estimated
02:08AM -11.2253 -47.6141 175° South  Level Estimated
02:09AM -11.3407 -47.6039 175° South  Level Estimated
02:10AM -11.4562 -47.5937 175° South  Level Estimated
02:11AM -11.5716 -47.5834 175° South  Level Estimated
02:12AM -11.6871 -47.5732 175° South  Level Estimated
02:13AM -11.8025 -47.5630 175° South  Level Estimated
02:14AM -11.9180 -47.5527 175° South  Level Estimated
02:15AM -12.0334 -47.5425 175° South  Level Estimated
02:16AM -12.1489 -47.5322 175° South  Level Estimated
02:17AM -12.2643 -47.5219 175° South  Level Estimated
02:18AM -12.3798 -47.5116 175° South  Level Estimated
02:19AM -12.4952 -47.5014 175° South  Level Estimated
02:20AM -12.6107 -47.4911 175° South  Level Estimated
02:21AM -12.7261 -47.4807 175° South  Level Estimated
02:22AM -12.8416 -47.4704 175° South  Level Estimated
02:23AM -12.9570 -47.4601 175° South  Level Estimated
02:24AM -13.0725 -47.4497 175° South  Level Estimated
02:25AM -13.1879 -47.4394 175° South  Level Estimated
02:26AM -13.3034 -47.4290 175° South  Level Estimated
02:27AM -13.4188 -47.4187 175° South  Level Estimated
02:28AM -13.5343 -47.4083 175° South  Level Estimated
02:29AM -13.6497 -47.3979 175° South  Level Estimated
02:30AM -13.7652 -47.3875 175° South  Level Estimated
02:31AM -13.8806 -47.3771 175° South  Level Estimated
02:32AM -13.9961 -47.3667 175° South  Level Estimated
02:33AM -14.1115 -47.3562 175° South  Level Estimated
02:34AM -14.2270 -47.3458 175° South  Level Estimated
02:35AM -14.3424 -47.3354 175° South  Level Estimated
02:36AM -14.4579 -47.3249 175° South  Level Estimated
02:37AM -14.5733 -47.3144 175° South  Level Estimated
02:38AM -14.6888 -47.3039 175° South  Level Estimated
02:39AM -14.8042 -47.2934 175° South  Level Estimated
02:40AM -14.9196 -47.2829 175° South  Level Estimated
02:41AM -15.0351 -47.2724 175° South  Level Estimated
02:42AM -15.1505 -47.2619 175° South  Level Estimated
02:43AM -15.2660 -47.2514 175° South  Level Estimated
02:44AM -15.3814 -47.2408 175° South  Level Estimated
02:45AM -15.4968 -47.2302 175° South  Level Estimated
02:46AM -15.6123 -47.2197 175° South  Level Estimated
02:47AM -15.7277 -47.2091 175° South  Level Estimated
02:48AM -15.8432 -47.1985 175° South  Level Estimated
02:49AM -15.9586 -47.1879 175° South  Level Estimated
02:50AM -16.0740 -47.1772 175° South  Level Estimated
02:51AM -16.1895 -47.1666 175° South  Level Estimated
02:52AM -16.3049 -47.1559 175° South  Level Estimated
02:53AM -16.4203 -47.1453 175° South  Level Estimated
02:54AM -16.5358 -47.1346 175° South  Level Estimated
02:55AM -16.6512 -47.1239 175° South  Level Estimated
02:56AM -16.7667 -47.1132 175° South  Level Estimated
02:57AM -16.8821 -47.1025 175° South  Level Estimated
02:58AM -16.9975 -47.0918 175° South  Level Estimated
02:59AM -17.1129 -47.0811 175° South  Level Estimated
03:00AM -17.2284 -47.0703 175° South  Level Estimated
03:01AM -17.3438 -47.0595 175° South  Level Estimated
03:02AM -17.4592 -47.0488 175° South  Level Estimated
03:03AM -17.5747 -47.0380 175° South  Level Estimated
03:04AM -17.6901 -47.0272 175° South  Level Estimated
03:05AM -17.8055 -47.0163 175° South  Level Estimated
03:06AM -17.9210 -47.0055 175° South  Level Estimated
03:07AM -18.0364 -46.9947 175° South  Level Estimated
03:08AM -18.1518 -46.9838 175° South  Level Estimated
03:09AM -18.2673 -46.9729 175° South  Level Estimated
03:10AM -18.3827 -46.9620 175° South  Level Estimated
03:11AM -18.4981 -46.9511 175° South  Level Estimated
03:12AM -18.6135 -46.9402 175° South  Level Estimated
03:13AM -18.7290 -46.9293 175° South  Level Estimated
03:14AM -18.8444 -46.9183 175° South  Level Estimated
03:15AM -18.9598 -46.9073 175° South  Level Estimated
03:16AM -19.0752 -46.8964 175° South  Level Estimated
03:17AM -19.1906 -46.8854 175° South  Level Estimated
03:18AM -19.3061 -46.8744 175° South  Level Estimated
03:19AM -19.4215 -46.8633 175° South  Level Estimated
03:20AM -19.5369 -46.8523 175° South  Level Estimated
03:21AM -19.6523 -46.8412 175° South  Level Estimated
03:22AM -19.7677 -46.8302 175° South  Level Estimated
03:23AM -19.8832 -46.8191 175° South  Level Estimated
03:24AM -19.9986 -46.8080 175° South  Level Estimated
03:25AM -20.1140 -46.7968 175° South  Level Estimated
03:26AM -20.2294 -46.7857 175° South  Level Estimated
03:27AM -20.3448 -46.7745 175° South  Level Estimated
03:28AM -20.4603 -46.7634 175° South  Level Estimated
03:29AM -20.5757 -46.7522 175° South  Level Estimated
03:30AM -20.6911 -46.7410 175° South  Level Estimated
03:31AM -20.8065 -46.7298 175° South  Level Estimated
03:32AM -20.9219 -46.7185 175° South  Level Estimated
03:33AM -21.0373 -46.7072 175° South  Level Estimated
03:34AM -21.1527 -46.6960 175° South  Level Estimated
03:35AM -21.2681 -46.6847 175° South  Level Estimated
03:36AM -21.3835 -46.6734 175° South  Level Estimated
03:37AM -21.4989 -46.6620 175° South  Level Estimated
03:38AM -21.6143 -46.6507 175° South  Level Estimated
03:39AM -21.7298 -46.6393 175° South  Level Estimated
03:40AM -21.8452 -46.6280 175° South  Level Estimated
03:41AM -21.9606 -46.6166 175° South  Level Estimated
03:42AM -22.0760 -46.6051 175° South  Level Estimated
03:43AM -22.1914 -46.5937 175° South  Level Estimated
03:44AM -22.3068 -46.5822 175° South  Level Estimated
03:45AM -22.4222 -46.5708 175° South  Level Estimated
03:46AM -22.5376 -46.5593 175° South  Level Estimated
03:47AM -22.6530 -46.5478 175° South  Level Estimated
03:48AM -22.7684 -46.5362 175° South  Level Estimated
03:49AM -22.8838 -46.5247 175° South  Level Estimated
03:50AM -22.9992 -46.5131 175° South  Level Estimated
03:51AM -23.1146 -46.5015 175° South  Level Estimated
03:52AM -23.2300 -46.4899 175° South  Level Estimated
03:53AM -23.3454 -46.4783 175° South  Level Estimated
03:54AM -23.4321 -46.4695 175° South  Level Estimated
03:55AM -23.4321 -46.4695 350° North  Level Estimated
03:56AM -23.4321 -46.4695 350° North  Level Estimated
03:57AM -23.4321 -46.4695 350° North  Level Estimated
03:58AM -23.4321 -46.4695 350° North  Level Estimated
03:59AM -23.4321 -46.4695 350° North  Level Estimated
04:00AM -23.4321 -46.4695 350° North  Level Estimated
04:01AM -23.4321 -46.4695 350° North  Level Estimated
04:02AM -23.4321 -46.4695 350° North  Level Estimated
04:03AM -23.4321 -46.4695 350° North  Level Estimated
04:04AM -23.4321 -46.4695 350° North  Level Estimated
04:05AM -23.4321 -46.4695 350° North  Level Estimated
04:06AM -23.4321 -46.4695 350° North  Level Estimated
04:07AM -23.4321 -46.4695 350° North  Level Estimated
04:08AM -23.4321 -46.4695 350° North  Level Estimated
04:09AM -23.4321 -46.4695 350° North  Level Estimated